createdAt,value
2023-01-21T00:00:38.513Z,84.85
2023-01-21T00:03:05.103Z,84.58
2023-01-21T00:05:31.765Z,84.71
2023-01-21T00:07:58.292Z,84.76
2023-01-21T00:10:24.852Z,84.68
2023-01-21T00:12:51.359Z,84.62
2023-01-21T00:15:17.992Z,84.32
2023-01-21T00:17:44.575Z,84.84
2023-01-21T00:20:12.751Z,84.76
2023-01-21T00:22:39.653Z,85.00
2023-01-21T00:25:06.831Z,85.14
2023-01-21T00:27:33.306Z,85.47
2023-01-21T00:29:59.809Z,85.67
2023-01-21T00:32:26.391Z,85.96
2023-01-21T00:34:53.042Z,85.96
2023-01-21T00:37:19.824Z,86.17
2023-01-21T00:39:47.346Z,86.07
2023-01-21T00:42:15.994Z,85.30
2023-01-21T00:44:42.580Z,85.51
2023-01-21T00:47:09.131Z,85.29
2023-01-21T00:49:35.661Z,85.09
2023-01-21T00:52:02.299Z,84.87
2023-01-21T00:54:28.861Z,85.46
2023-01-21T00:56:55.949Z,85.79
2023-01-21T00:59:22.691Z,87.10
2023-01-21T01:01:49.299Z,87.75
2023-01-21T01:04:16.067Z,87.32
2023-01-21T01:06:43.621Z,88.30
2023-01-21T01:09:11.196Z,87.92
2023-01-21T01:11:37.748Z,87.70
2023-01-21T01:14:05.011Z,86.95
2023-01-21T01:16:31.531Z,87.52
2023-01-21T01:18:58.223Z,87.07
2023-01-21T01:21:24.862Z,88.37
2023-01-21T01:23:55.747Z,88.29
2023-01-21T01:26:22.523Z,88.45
2023-01-21T01:28:49.304Z,88.40
2023-01-21T01:31:18.308Z,88.58
2023-01-21T01:33:45.616Z,88.99
2023-01-21T01:36:19.199Z,90.23
2023-01-21T01:38:46.523Z,90.24
2023-01-21T01:41:16.715Z,90.06
2023-01-21T01:43:58.728Z,89.60
2023-01-21T01:46:31.376Z,89.51
2023-01-21T01:49:16.998Z,89.80
2023-01-21T01:51:53.091Z,90.51
2023-01-21T01:54:33.745Z,91.06
2023-01-21T01:57:03.741Z,91.33
2023-01-21T01:59:31.873Z,92.89
2023-01-21T02:02:03.382Z,92.74
2023-01-21T02:04:37.572Z,93.04
2023-01-21T02:07:04.696Z,92.53
2023-01-21T02:09:31.236Z,93.36
2023-01-21T02:12:01.395Z,92.63
2023-01-21T02:14:30.551Z,91.91
2023-01-21T02:17:07.245Z,91.35
2023-01-21T02:19:48.039Z,91.07
2023-01-21T02:22:43.447Z,91.75
2023-01-21T02:25:43.245Z,90.78
2023-01-21T02:28:36.387Z,90.79
2023-01-21T02:31:09.054Z,91.56
2023-01-21T02:33:56.148Z,91.09
2023-01-21T02:36:43.453Z,91.17
2023-01-21T02:39:25.892Z,90.75
2023-01-21T02:42:06.034Z,89.12
2023-01-21T02:44:42.860Z,89.69
2023-01-21T02:47:19.338Z,89.47
2023-01-21T02:49:48.575Z,89.77
2023-01-21T02:52:20.603Z,89.61
2023-01-21T02:54:53.915Z,89.69
2023-01-21T02:57:31.095Z,88.63
2023-01-21T02:59:59.637Z,88.86
2023-01-21T03:02:54.954Z,88.10
2023-01-21T03:05:35.030Z,88.35
2023-01-21T03:08:27.916Z,88.41
2023-01-21T03:11:15.934Z,87.86
2023-01-21T03:14:08.339Z,86.97
2023-01-21T03:16:58.669Z,87.07
2023-01-21T03:19:32.567Z,87.71
2023-01-21T03:22:02.420Z,86.79
2023-01-21T03:24:29.217Z,86.74
2023-01-21T03:26:59.379Z,86.41
2023-01-21T03:29:28.810Z,87.21
2023-01-21T03:31:59.761Z,86.77
2023-01-21T03:34:29.962Z,86.78
2023-01-21T03:37:16.026Z,87.62
2023-01-21T03:40:00.206Z,86.84
2023-01-21T03:42:27.393Z,86.30
2023-01-21T03:44:54.606Z,86.56
2023-01-21T03:47:31.912Z,85.47
2023-01-21T03:50:04.290Z,84.77
2023-01-21T03:52:32.167Z,85.06
2023-01-21T03:54:59.090Z,85.05
2023-01-21T03:57:25.729Z,83.61
2023-01-21T03:59:53.354Z,82.93
2023-01-21T04:02:21.122Z,83.45
2023-01-21T04:04:48.027Z,84.08
2023-01-21T04:07:16.254Z,84.55
2023-01-21T04:09:43.255Z,85.92
2023-01-21T04:12:09.801Z,86.06
2023-01-21T04:14:36.389Z,87.44
2023-01-21T04:17:02.943Z,87.01
2023-01-21T04:19:29.552Z,88.12
2023-01-21T04:21:56.103Z,87.31
2023-01-21T04:24:22.654Z,87.87
2023-01-21T04:26:49.160Z,87.16
2023-01-21T04:29:15.771Z,87.10
2023-01-21T04:31:42.480Z,88.55
2023-01-21T04:34:09.163Z,89.27
2023-01-21T04:36:35.839Z,89.57
2023-01-21T04:39:02.595Z,89.80
2023-01-21T04:41:29.124Z,89.41
2023-01-21T04:43:55.709Z,89.55
2023-01-21T04:46:22.445Z,90.38
2023-01-21T04:48:49.152Z,89.79
2023-01-21T04:51:15.632Z,90.47
2023-01-21T04:53:42.284Z,91.85
2023-01-21T04:56:08.819Z,90.67
2023-01-21T04:58:35.392Z,91.22
2023-01-21T05:01:02.001Z,93.80
2023-01-21T05:03:28.624Z,93.16
2023-01-21T05:05:55.130Z,94.32
2023-01-21T05:08:21.641Z,93.79
2023-01-21T05:10:48.308Z,94.19
2023-01-21T05:13:14.815Z,93.12
2023-01-21T05:15:41.417Z,92.79
2023-01-21T05:18:08.116Z,92.29
2023-01-21T05:20:35.136Z,90.99
2023-01-21T05:23:01.789Z,90.63
2023-01-21T05:25:28.436Z,90.41
2023-01-21T05:27:55.739Z,91.16
2023-01-21T05:30:22.651Z,90.61
2023-01-21T05:32:53.193Z,90.91
2023-01-21T05:35:23.989Z,90.67
2023-01-21T05:37:50.928Z,90.54
2023-01-21T05:40:18.542Z,90.46
2023-01-21T05:42:46.349Z,91.14
2023-01-21T05:45:14.175Z,90.54
2023-01-21T05:47:41.017Z,90.08
2023-01-21T05:50:08.751Z,90.32
2023-01-21T05:52:35.594Z,91.93
2023-01-21T05:55:03.182Z,92.75
2023-01-21T05:57:30.680Z,93.27
2023-01-21T05:59:58.067Z,93.00
2023-01-21T06:02:25.509Z,94.24
2023-01-21T06:04:53.470Z,94.00
2023-01-21T06:07:20.767Z,94.34
2023-01-21T06:09:47.278Z,93.72
2023-01-21T06:12:13.831Z,93.20
2023-01-21T06:14:40.331Z,91.98
2023-01-21T06:17:07.029Z,92.31
2023-01-21T06:19:33.665Z,90.99
2023-01-21T06:22:00.207Z,92.50
2023-01-21T06:24:28.151Z,91.62
2023-01-21T06:26:54.834Z,90.89
2023-01-21T06:29:21.345Z,91.69
2023-01-21T06:31:47.961Z,91.23
2023-01-21T06:34:15.064Z,91.58
2023-01-21T06:36:43.109Z,90.49
2023-01-21T06:39:11.096Z,89.60
2023-01-21T06:41:37.672Z,88.36
2023-01-21T06:44:04.383Z,87.12
2023-01-21T06:46:31.302Z,86.99
2023-01-21T06:48:57.862Z,85.94
2023-01-21T06:51:24.614Z,85.46
2023-01-21T06:53:51.229Z,85.19
2023-01-21T06:56:18.003Z,84.28
2023-01-21T06:58:44.662Z,83.53
2023-01-21T07:01:12.603Z,84.47
2023-01-21T07:03:40.584Z,83.04
2023-01-21T07:06:08.221Z,82.82
2023-01-21T07:08:35.918Z,83.88
2023-01-21T07:11:07.395Z,83.91
2023-01-21T07:13:35.691Z,83.51
2023-01-21T07:16:06.024Z,83.59
2023-01-21T07:18:37.511Z,82.97
2023-01-21T07:21:04.584Z,84.85
2023-01-21T07:23:31.558Z,84.40
2023-01-21T07:26:02.773Z,84.06
2023-01-21T07:28:31.303Z,83.67
2023-01-21T07:31:02.113Z,85.22
2023-01-21T07:33:29.403Z,84.80
2023-01-21T07:35:57.566Z,86.68
2023-01-21T07:38:25.705Z,87.67
2023-01-21T07:40:52.449Z,87.73
2023-01-21T07:43:18.989Z,87.75
2023-01-21T07:45:46.085Z,94.19
2023-01-21T07:48:12.862Z,90.04
2023-01-21T07:50:39.469Z,92.72
2023-01-21T07:53:06.020Z,86.41
2023-01-21T07:55:33.259Z,85.20
2023-01-21T07:57:59.899Z,84.22
2023-01-21T08:00:29.380Z,86.64
2023-01-21T08:02:57.155Z,86.49
2023-01-21T08:05:25.288Z,85.31
2023-01-21T08:07:52.408Z,85.42
2023-01-21T08:10:19.883Z,85.05
2023-01-21T08:12:48.014Z,84.97
2023-01-21T08:15:16.411Z,85.00
2023-01-21T08:17:44.775Z,86.07
2023-01-21T08:20:14.676Z,87.52
2023-01-21T08:22:41.355Z,89.30
2023-01-21T08:25:08.302Z,89.83
2023-01-21T08:27:34.807Z,89.19
2023-01-21T08:30:01.421Z,89.46
2023-01-21T08:32:33.429Z,88.45
2023-01-21T08:35:01.400Z,89.65
2023-01-21T08:37:31.001Z,88.80
2023-01-21T08:40:00.118Z,88.58
2023-01-21T08:42:26.770Z,87.87
2023-01-21T08:44:54.007Z,87.55
2023-01-21T08:47:21.011Z,87.19
2023-01-21T08:49:47.604Z,87.11
2023-01-21T08:52:14.647Z,87.75
2023-01-21T08:54:41.413Z,88.13
2023-01-21T08:57:09.024Z,87.62
2023-01-21T08:59:35.898Z,88.35
2023-01-21T09:02:02.462Z,88.50
2023-01-21T09:04:30.190Z,86.55
2023-01-21T09:06:57.025Z,85.51
2023-01-21T09:09:24.429Z,85.20
2023-01-21T09:11:52.457Z,83.79
2023-01-21T09:14:20.058Z,83.99
2023-01-21T09:16:51.539Z,84.04
2023-01-21T09:19:19.037Z,84.14
2023-01-21T09:21:45.678Z,83.84
2023-01-21T09:24:12.476Z,83.83
2023-01-21T09:26:46.366Z,83.26
2023-01-21T09:29:13.441Z,82.65
2023-01-21T09:31:40.124Z,81.36
2023-01-21T09:34:06.715Z,81.28
2023-01-21T09:36:35.362Z,81.16
2023-01-21T09:39:03.120Z,80.50
2023-01-21T09:41:38.305Z,80.81
2023-01-21T09:44:16.608Z,81.13
2023-01-21T09:47:07.525Z,81.22
2023-01-21T09:49:49.117Z,81.96
2023-01-21T09:52:24.436Z,81.66
2023-01-21T09:54:52.571Z,80.78
2023-01-21T09:57:45.301Z,80.39
2023-01-21T10:00:29.740Z,80.61
2023-01-21T10:03:11.157Z,80.51
2023-01-21T10:05:53.587Z,80.16
2023-01-21T10:08:43.917Z,79.20
2023-01-21T10:11:29.383Z,79.29
2023-01-21T10:14:33.783Z,80.12
2023-01-21T10:17:21.523Z,79.81
2023-01-21T10:20:13.429Z,80.75
2023-01-21T10:22:51.040Z,81.01
2023-01-21T10:25:30.175Z,80.66
2023-01-21T10:28:23.132Z,80.22
2023-01-21T10:30:53.357Z,80.02
2023-01-21T10:33:26.175Z,79.44
2023-01-21T10:36:22.122Z,79.17
2023-01-21T10:38:52.147Z,78.88
2023-01-21T10:41:58.261Z,78.79
2023-01-21T10:44:34.024Z,79.88
2023-01-21T10:47:14.578Z,79.63
2023-01-21T10:50:02.816Z,79.74
2023-01-21T10:52:34.102Z,80.41
2023-01-21T10:55:05.131Z,80.99
2023-01-21T10:58:03.014Z,81.34
2023-01-21T11:00:36.337Z,80.52
2023-01-21T11:03:19.602Z,79.83
2023-01-21T11:05:50.072Z,79.79
2023-01-21T11:08:22.658Z,80.04
2023-01-21T11:10:55.785Z,78.42
2023-01-21T11:13:24.109Z,80.05
2023-01-21T11:15:53.825Z,79.96
2023-01-21T11:18:35.737Z,80.46
2023-01-21T11:21:19.061Z,79.60
2023-01-21T11:24:03.689Z,78.97
2023-01-21T11:26:36.122Z,78.34
2023-01-21T11:29:18.068Z,78.44
2023-01-21T11:31:48.648Z,78.26
2023-01-21T11:34:23.152Z,77.67
2023-01-21T11:36:59.002Z,77.68
2023-01-21T11:39:29.463Z,77.87
2023-01-21T11:42:05.875Z,78.59
2023-01-21T11:44:34.985Z,79.64
2023-01-21T11:47:37.943Z,78.87
2023-01-21T11:50:19.290Z,79.60
2023-01-21T11:52:47.531Z,79.07
2023-01-21T11:55:21.779Z,79.42
2023-01-21T11:57:53.696Z,79.34
2023-01-21T12:00:28.562Z,79.26
2023-01-21T12:03:02.190Z,79.49
2023-01-21T12:05:33.617Z,80.83
2023-01-21T12:08:01.157Z,81.56
2023-01-21T12:10:33.485Z,81.04
2023-01-21T12:13:15.175Z,81.21
2023-01-21T12:16:07.846Z,81.60
2023-01-21T12:18:43.129Z,81.58
2023-01-21T12:21:38.161Z,82.47
2023-01-21T12:24:35.825Z,81.50
2023-01-21T12:27:35.054Z,82.79
2023-01-21T12:30:34.157Z,82.15
2023-01-21T12:33:17.898Z,83.75
2023-01-21T12:36:36.356Z,83.89
2023-01-21T12:39:16.945Z,82.63
2023-01-21T12:41:51.154Z,83.20
2023-01-21T12:44:42.230Z,82.63
2023-01-21T12:47:21.236Z,81.97
2023-01-21T12:50:11.166Z,81.96
2023-01-21T12:52:48.626Z,82.52
2023-01-21T12:55:24.354Z,81.66
2023-01-21T12:58:05.373Z,82.35
2023-01-21T13:00:40.204Z,82.27
2023-01-21T13:03:10.142Z,83.87
2023-01-21T13:06:08.775Z,83.24
2023-01-21T13:08:54.644Z,83.22
2023-01-21T13:11:39.229Z,82.97
2023-01-21T13:14:09.976Z,83.11
2023-01-21T13:16:46.473Z,83.89
2023-01-21T13:19:15.959Z,83.48
2023-01-21T13:22:02.231Z,84.33
2023-01-21T13:24:34.406Z,84.84
2023-01-21T13:27:20.113Z,84.91
2023-01-21T13:30:01.923Z,84.51
2023-01-21T13:32:42.440Z,85.39
2023-01-21T13:35:23.555Z,84.71
2023-01-21T13:38:00.192Z,84.34
2023-01-21T13:40:39.453Z,84.29
2023-01-21T13:43:54.574Z,85.29
2023-01-21T13:46:47.445Z,85.31
2023-01-21T13:49:34.537Z,84.36
2023-01-21T13:52:22.878Z,84.10
2023-01-21T13:55:08.392Z,84.48
2023-01-21T13:58:24.584Z,84.82
2023-01-21T14:01:06.836Z,84.84
2023-01-21T14:03:51.889Z,83.81
2023-01-21T14:06:38.952Z,84.31
2023-01-21T14:09:24.636Z,84.35
2023-01-21T14:12:09.440Z,83.92
2023-01-21T14:14:53.769Z,84.07
2023-01-21T14:17:34.113Z,84.19
2023-01-21T14:20:15.157Z,84.19
2023-01-21T14:23:00.249Z,83.57
2023-01-21T14:26:08.863Z,84.77
2023-01-21T14:29:18.158Z,83.71
2023-01-21T14:31:51.029Z,83.13
2023-01-21T14:34:55.951Z,82.63
2023-01-21T14:37:38.655Z,82.48
2023-01-21T14:40:17.297Z,82.35
2023-01-21T14:42:49.951Z,82.04
2023-01-21T14:45:22.527Z,82.15
2023-01-21T14:47:54.348Z,82.89
2023-01-21T14:50:54.787Z,82.78
2023-01-21T14:53:26.402Z,82.81
2023-01-21T14:56:07.139Z,83.30
2023-01-21T14:58:37.271Z,82.18
2023-01-21T15:01:07.454Z,82.42
2023-01-21T15:03:48.081Z,82.25
2023-01-21T15:06:23.796Z,81.54
2023-01-21T15:08:57.798Z,81.67
2023-01-21T15:11:39.944Z,82.44
2023-01-21T15:14:33.270Z,81.54
2023-01-21T15:17:03.058Z,81.06
2023-01-21T15:19:35.334Z,82.12
2023-01-21T15:22:17.844Z,81.58
2023-01-21T15:25:02.128Z,81.36
2023-01-21T15:27:32.881Z,81.63
2023-01-21T15:30:02.422Z,81.61
2023-01-21T15:32:32.198Z,81.33
2023-01-21T15:35:05.531Z,80.18
2023-01-21T15:37:36.502Z,80.03
2023-01-21T15:40:16.990Z,79.79
2023-01-21T15:43:03.358Z,79.39
2023-01-21T15:45:45.900Z,79.88
2023-01-21T15:48:41.198Z,79.52
2023-01-21T15:51:31.515Z,79.37
2023-01-21T15:54:28.971Z,79.09
2023-01-21T15:56:58.526Z,79.37
2023-01-21T16:00:23.938Z,78.54
2023-01-21T16:02:58.187Z,79.71
2023-01-21T16:05:46.683Z,79.96
2023-01-21T16:08:51.698Z,79.90
2023-01-21T16:11:43.570Z,80.00
2023-01-21T16:14:31.793Z,79.98
2023-01-21T16:17:50.496Z,79.89
2023-01-21T16:20:21.201Z,79.48
2023-01-21T16:22:52.824Z,80.00
2023-01-21T16:25:24.614Z,80.01
2023-01-21T16:28:03.715Z,79.75
2023-01-21T16:30:32.286Z,79.69
2023-01-21T16:33:13.841Z,78.83
2023-01-21T16:35:53.085Z,78.81
2023-01-21T16:38:25.395Z,78.64
2023-01-21T16:41:12.544Z,77.72
2023-01-21T16:44:00.085Z,77.80
2023-01-21T16:46:41.216Z,78.20
2023-01-21T16:49:15.995Z,78.56
2023-01-21T16:51:55.028Z,79.06
2023-01-21T16:54:32.263Z,79.97
2023-01-21T16:57:21.276Z,80.37
2023-01-21T16:59:50.084Z,79.97
2023-01-21T17:02:26.990Z,80.44
2023-01-21T17:05:00.014Z,80.06
2023-01-21T17:07:35.149Z,80.34
2023-01-21T17:10:06.265Z,79.78
2023-01-21T17:12:36.311Z,79.56
2023-01-21T17:15:18.245Z,79.74
2023-01-21T17:17:48.916Z,79.22
2023-01-21T17:20:32.777Z,79.29
2023-01-21T17:23:09.537Z,79.27
2023-01-21T17:25:37.102Z,78.38
2023-01-21T17:28:28.583Z,78.77
2023-01-21T17:31:13.988Z,79.24
2023-01-21T17:33:42.166Z,79.04
2023-01-21T17:36:13.636Z,78.71
2023-01-21T17:38:42.709Z,78.59
2023-01-21T17:41:33.535Z,78.45
2023-01-21T17:44:14.584Z,80.65
2023-01-21T17:46:50.225Z,79.24
2023-01-21T17:49:24.852Z,79.74
2023-01-21T17:51:55.511Z,79.74
2023-01-21T17:54:24.782Z,79.05
2023-01-21T17:56:57.307Z,79.31
2023-01-21T17:59:31.524Z,78.93
2023-01-21T18:01:58.275Z,78.56
2023-01-21T18:04:24.826Z,79.33
2023-01-21T18:06:53.441Z,79.42
2023-01-21T18:09:22.500Z,78.25
2023-01-21T18:11:53.946Z,78.50
2023-01-21T18:14:25.352Z,78.99
2023-01-21T18:16:55.879Z,78.14
2023-01-21T18:19:32.014Z,78.21
2023-01-21T18:22:02.142Z,78.88
2023-01-21T18:24:33.365Z,78.79
2023-01-21T18:27:01.862Z,78.38
2023-01-21T18:29:31.230Z,78.06
2023-01-21T18:31:59.158Z,77.53
2023-01-21T18:34:29.161Z,77.50
2023-01-21T18:36:57.695Z,77.46
2023-01-21T18:39:26.825Z,77.73
2023-01-21T18:41:56.594Z,77.28
2023-01-21T18:44:24.282Z,78.04
2023-01-21T18:46:52.450Z,77.82
2023-01-21T18:49:25.997Z,78.33
2023-01-21T18:51:55.733Z,81.33
2023-01-21T18:54:22.235Z,79.14
2023-01-21T18:56:49.454Z,99.12
2023-01-21T18:59:18.154Z,92.28
2023-01-21T19:01:45.302Z,82.26
2023-01-21T19:04:18.976Z,76.94
2023-01-21T19:06:47.785Z,74.99
2023-01-21T19:09:23.437Z,75.11
2023-01-21T19:11:50.705Z,74.82
2023-01-21T19:14:17.840Z,75.11
2023-01-21T19:16:44.834Z,75.77
2023-01-21T19:19:16.661Z,76.08
2023-01-21T19:21:43.322Z,75.96
2023-01-21T19:24:12.084Z,76.24
2023-01-21T19:26:40.380Z,77.19
2023-01-21T19:29:15.539Z,78.19
2023-01-21T19:31:42.625Z,77.61
2023-01-21T19:34:10.311Z,77.79
2023-01-21T19:36:36.994Z,78.00
2023-01-21T19:39:03.723Z,77.96
2023-01-21T19:41:30.235Z,78.20
2023-01-21T19:43:56.909Z,78.05
2023-01-21T19:46:24.038Z,78.52
2023-01-21T19:48:53.418Z,77.41
2023-01-21T19:51:20.003Z,77.09
2023-01-21T19:53:46.569Z,77.40
2023-01-21T19:56:18.576Z,76.69
2023-01-21T19:58:48.500Z,77.89
2023-01-21T20:01:15.081Z,77.84
2023-01-21T20:03:54.664Z,77.49
2023-01-21T20:06:26.426Z,78.15
2023-01-21T20:08:53.171Z,77.74
2023-01-21T20:11:19.700Z,77.86
2023-01-21T20:13:46.263Z,77.87
2023-01-21T20:16:18.714Z,77.44
2023-01-21T20:18:46.189Z,77.49
2023-01-21T20:21:12.905Z,77.51
2023-01-21T20:23:39.474Z,77.47
2023-01-21T20:26:16.248Z,76.70
2023-01-21T20:28:47.719Z,76.50
2023-01-21T20:31:14.505Z,77.39
2023-01-21T20:33:42.514Z,76.98
2023-01-21T20:36:18.228Z,76.90
2023-01-21T20:38:45.346Z,76.76
2023-01-21T20:41:13.486Z,76.34
2023-01-21T20:43:40.752Z,76.39
2023-01-21T20:46:14.913Z,76.67
2023-01-21T20:48:43.683Z,76.02
2023-01-21T20:51:10.720Z,76.05
2023-01-21T20:53:38.205Z,76.79
2023-01-21T20:56:16.539Z,76.70
2023-01-21T20:58:44.989Z,75.98
2023-01-21T21:03:44.189Z,76.49
2023-01-21T21:06:15.680Z,75.80
2023-01-21T21:08:42.764Z,75.90
2023-01-21T21:11:10.055Z,76.24
2023-01-21T21:13:37.090Z,75.84
2023-01-21T21:16:16.746Z,76.75
2023-01-21T21:18:43.284Z,76.01
2023-01-21T21:21:12.231Z,76.50
2023-01-21T21:23:38.725Z,76.54
2023-01-21T21:26:15.273Z,76.43
2023-01-21T21:28:41.805Z,76.66
2023-01-21T21:31:12.228Z,76.29
2023-01-21T21:33:38.872Z,76.83
2023-01-21T21:36:06.056Z,77.27
2023-01-21T21:38:32.661Z,76.68
2023-01-21T21:41:19.094Z,76.68
2023-01-21T21:43:45.588Z,77.64
2023-01-21T21:46:31.295Z,77.63
2023-01-21T21:48:57.851Z,77.08
2023-01-21T21:51:24.648Z,76.95
2023-01-21T21:53:51.425Z,77.24
2023-01-21T21:56:21.102Z,77.91
2023-01-21T21:58:48.681Z,77.86
2023-01-21T22:01:25.081Z,77.52
2023-01-21T22:03:52.271Z,77.93
2023-01-21T22:06:20.698Z,77.18
2023-01-21T22:08:47.537Z,77.05
2023-01-21T22:11:18.390Z,76.82
2023-01-21T22:13:50.119Z,78.36
2023-01-21T22:16:28.703Z,77.76
2023-01-21T22:18:56.891Z,78.31
2023-01-21T22:21:26.160Z,77.99
2023-01-21T22:23:53.847Z,77.56
2023-01-21T22:26:22.707Z,77.99
2023-01-21T22:28:53.380Z,77.94
2023-01-21T22:31:23.606Z,78.41
2023-01-21T22:33:50.782Z,78.65
2023-01-21T22:36:19.465Z,78.27
2023-01-21T22:38:46.566Z,77.81
2023-01-21T22:41:15.294Z,78.10
2023-01-21T22:43:44.840Z,77.56
2023-01-21T22:46:14.312Z,77.79
2023-01-21T22:48:42.118Z,78.02
2023-01-21T22:51:12.480Z,77.31
2023-01-21T22:53:43.936Z,77.94
2023-01-21T22:56:12.477Z,77.48
2023-01-21T22:58:39.085Z,78.28
2023-01-21T23:01:07.497Z,78.47
2023-01-21T23:03:34.136Z,78.65
2023-01-21T23:06:05.634Z,79.02
2023-01-21T23:08:32.285Z,79.15
2023-01-21T23:11:07.138Z,79.83
2023-01-21T23:13:34.550Z,80.04
2023-01-21T23:16:01.259Z,80.34
2023-01-21T23:18:29.124Z,80.31
2023-01-21T23:20:56.371Z,81.00
2023-01-21T23:23:24.685Z,81.00
2023-01-21T23:25:51.352Z,81.39
2023-01-21T23:28:17.861Z,81.24
2023-01-21T23:30:44.515Z,81.33
2023-01-21T23:33:11.893Z,81.20
2023-01-21T23:35:38.375Z,81.16
2023-01-21T23:38:05.064Z,81.86
2023-01-21T23:40:31.541Z,81.73
2023-01-21T23:42:58.097Z,81.40
2023-01-21T23:45:24.602Z,81.95
2023-01-21T23:47:51.225Z,81.96
2023-01-21T23:50:18.995Z,81.11
2023-01-21T23:52:45.825Z,81.68
2023-01-21T23:55:12.757Z,80.76
2023-01-21T23:57:39.246Z,81.46
